createdAt,value
2023-03-20T00:00:35.000Z,2785.0
2023-03-20T00:01:36.000Z,2891.0
2023-03-20T00:02:36.000Z,2862.0
2023-03-20T00:03:35.000Z,2779.0
2023-03-20T00:04:36.000Z,2751.0
2023-03-20T00:05:35.000Z,2730.0
2023-03-20T00:06:36.000Z,2800.0
2023-03-20T00:07:36.000Z,2696.0
2023-03-20T00:08:35.000Z,2757.0
2023-03-20T00:09:36.000Z,2706.0
2023-03-20T00:10:36.000Z,2663.0
2023-03-20T00:11:35.000Z,2710.0
2023-03-20T00:12:36.000Z,2709.0
2023-03-20T00:13:35.000Z,2734.0
2023-03-20T00:14:36.000Z,2655.0
2023-03-20T00:15:36.000Z,2586.0
2023-03-20T00:16:35.000Z,2459.0
2023-03-20T00:17:36.000Z,2468.0
2023-03-20T00:18:35.000Z,2520.0
2023-03-20T00:19:36.000Z,2592.0
2023-03-20T00:20:36.000Z,2639.0
2023-03-20T00:21:35.000Z,2557.0
2023-03-20T00:22:36.000Z,2613.0
2023-03-20T00:23:36.000Z,2650.0
2023-03-20T00:24:35.000Z,2673.0
2023-03-20T00:25:36.000Z,2499.0
2023-03-20T00:26:35.000Z,2422.0
2023-03-20T00:27:36.000Z,2380.0
2023-03-20T00:28:36.000Z,2327.0
2023-03-20T00:29:35.000Z,2324.0
2023-03-20T00:30:36.000Z,2300.0
2023-03-20T00:31:35.000Z,2308.0
2023-03-20T00:32:36.000Z,2333.0
2023-03-20T00:33:36.000Z,2335.0
2023-03-20T00:34:35.000Z,2244.0
2023-03-20T00:35:36.000Z,2262.0
2023-03-20T00:36:36.000Z,2339.0
2023-03-20T00:37:35.000Z,2363.0
2023-03-20T00:38:36.000Z,2450.0
2023-03-20T00:39:35.000Z,2520.0
2023-03-20T00:40:36.000Z,2500.0
2023-03-20T00:41:36.000Z,2388.0
2023-03-20T00:42:35.000Z,2426.0
2023-03-20T00:43:36.000Z,2374.0
2023-03-20T00:44:35.000Z,2385.0
2023-03-20T00:45:35.000Z,2414.0
2023-03-20T00:46:36.000Z,2351.0
2023-03-20T00:47:35.000Z,2409.0
2023-03-20T00:48:36.000Z,2371.0
2023-03-20T00:49:36.000Z,2431.0
2023-03-20T00:50:35.000Z,2469.0
2023-03-20T00:51:36.000Z,2484.0
2023-03-20T00:52:35.000Z,2463.0
2023-03-20T00:53:36.000Z,2573.0
2023-03-20T00:54:36.000Z,2622.0
2023-03-20T00:55:35.000Z,2730.0
2023-03-20T00:56:36.000Z,2692.0
2023-03-20T00:57:36.000Z,2770.0
2023-03-20T00:58:35.000Z,2803.0
2023-03-20T00:59:36.000Z,2986.0
2023-03-20T01:00:35.000Z,2982.0
2023-03-20T01:01:36.000Z,2988.0
2023-03-20T01:02:36.000Z,3023.0
2023-03-20T01:03:35.000Z,3044.0
2023-03-20T01:04:36.000Z,2938.0
2023-03-20T01:05:35.000Z,2992.0
2023-03-20T01:06:35.000Z,3075.0
2023-03-20T01:07:36.000Z,3190.0
2023-03-20T01:08:35.000Z,3049.0
2023-03-20T01:09:36.000Z,2950.0
2023-03-20T01:10:36.000Z,2821.0
2023-03-20T01:11:35.000Z,2850.0
2023-03-20T01:12:36.000Z,2806.0
2023-03-20T01:13:35.000Z,2841.0
2023-03-20T01:14:36.000Z,2886.0
2023-03-20T01:15:36.000Z,2786.0
2023-03-20T01:16:35.000Z,2723.0
2023-03-20T01:17:36.000Z,2676.0
2023-03-20T01:18:36.000Z,2685.0
2023-03-20T01:19:35.000Z,2623.0
2023-03-20T01:20:36.000Z,2646.0
2023-03-20T01:21:35.000Z,2655.0
2023-03-20T01:22:36.000Z,2720.0
2023-03-20T01:23:36.000Z,2738.0
2023-03-20T01:24:35.000Z,2717.0
2023-03-20T01:25:36.000Z,2645.0
2023-03-20T01:26:35.000Z,2635.0
2023-03-20T01:27:36.000Z,2477.0
2023-03-20T01:28:36.000Z,2407.0
2023-03-20T01:29:35.000Z,2404.0
2023-03-20T01:30:36.000Z,2382.0
2023-03-20T01:31:35.000Z,2403.0
2023-03-20T01:32:35.000Z,2159.0
2023-03-20T01:33:36.000Z,2078.0
2023-03-20T01:34:35.000Z,1928.0
2023-03-20T01:35:36.000Z,1847.0
2023-03-20T01:36:36.000Z,1624.0
2023-03-20T01:37:35.000Z,1589.0
2023-03-20T01:38:36.000Z,1668.0
2023-03-20T01:39:35.000Z,1723.0
2023-03-20T01:40:36.000Z,1782.0
2023-03-20T01:41:36.000Z,1870.0
2023-03-20T01:42:35.000Z,2077.0
2023-03-20T01:43:36.000Z,2211.0
2023-03-20T01:44:36.000Z,2271.0
2023-03-20T01:45:35.000Z,2387.0
2023-03-20T01:46:36.000Z,2302.0
2023-03-20T01:47:35.000Z,2338.0
2023-03-20T01:48:36.000Z,2414.0
2023-03-20T01:49:36.000Z,2471.0
2023-03-20T01:50:35.000Z,2603.0
2023-03-20T01:51:36.000Z,2665.0
2023-03-20T01:52:36.000Z,2615.0
2023-03-20T01:53:35.000Z,2610.0
2023-03-20T01:54:36.000Z,2621.0
2023-03-20T01:55:35.000Z,2651.0
2023-03-20T01:56:35.000Z,2738.0
2023-03-20T01:57:36.000Z,2696.0
2023-03-20T01:58:35.000Z,2706.0
2023-03-20T01:59:36.000Z,2609.0
2023-03-20T02:00:36.000Z,2626.0
2023-03-20T02:01:35.000Z,2629.0
2023-03-20T02:02:36.000Z,2645.0
2023-03-20T02:03:35.000Z,2724.0
2023-03-20T02:04:36.000Z,2587.0
2023-03-20T02:05:36.000Z,2527.0
2023-03-20T02:06:35.000Z,2443.0
2023-03-20T02:07:36.000Z,2392.0
2023-03-20T02:08:36.000Z,2317.0
2023-03-20T02:09:35.000Z,2264.0
2023-03-20T02:10:36.000Z,2254.0
2023-03-20T02:11:35.000Z,2264.0
2023-03-20T02:12:36.000Z,2230.0
2023-03-20T02:13:36.000Z,2066.0
2023-03-20T02:14:35.000Z,2070.0
2023-03-20T02:15:36.000Z,2146.0
2023-03-20T02:16:35.000Z,2043.0
2023-03-20T02:17:35.000Z,2087.0
2023-03-20T02:18:36.000Z,2220.0
2023-03-20T02:19:35.000Z,2244.0
2023-03-20T02:20:36.000Z,2269.0
2023-03-20T02:21:36.000Z,2199.0
2023-03-20T02:22:35.000Z,2297.0
2023-03-20T02:23:36.000Z,2306.0
2023-03-20T02:24:35.000Z,2364.0
2023-03-20T02:25:36.000Z,2370.0
2023-03-20T02:26:36.000Z,2361.0
2023-03-20T02:27:35.000Z,2362.0
2023-03-20T02:28:36.000Z,2506.0
2023-03-20T02:29:36.000Z,2537.0
2023-03-20T02:30:35.000Z,2564.0
2023-03-20T02:31:36.000Z,2510.0
2023-03-20T02:32:35.000Z,2440.0
2023-03-20T02:33:36.000Z,2488.0
2023-03-20T02:34:36.000Z,2448.0
2023-03-20T02:35:35.000Z,2510.0
2023-03-20T02:36:36.000Z,2488.0
2023-03-20T02:37:35.000Z,2375.0
2023-03-20T02:38:36.000Z,2344.0
2023-03-20T02:39:36.000Z,2351.0
2023-03-20T02:40:35.000Z,2356.0
2023-03-20T02:41:36.000Z,2298.0
2023-03-20T02:42:35.000Z,2309.0
2023-03-20T02:43:35.000Z,2367.0
2023-03-20T02:44:36.000Z,2329.0
2023-03-20T02:45:35.000Z,2256.0
2023-03-20T02:46:36.000Z,2278.0
2023-03-20T02:47:36.000Z,2222.0
2023-03-20T02:48:35.000Z,2152.0
2023-03-20T02:49:36.000Z,2110.0
2023-03-20T02:50:36.000Z,2185.0
2023-03-20T02:51:35.000Z,2190.0
2023-03-20T02:52:36.000Z,2194.0
2023-03-20T02:53:35.000Z,2230.0
2023-03-20T02:54:36.000Z,2203.0
2023-03-20T02:55:36.000Z,2206.0
2023-03-20T02:56:35.000Z,2184.0
2023-03-20T02:57:36.000Z,2321.0
2023-03-20T02:58:36.000Z,2390.0
2023-03-20T02:59:35.000Z,2463.0
2023-03-20T03:00:36.000Z,2584.0
2023-03-20T03:01:35.000Z,2591.0
2023-03-20T03:02:36.000Z,2620.0
2023-03-20T03:03:36.000Z,2595.0
2023-03-20T03:04:35.000Z,2544.0
2023-03-20T03:05:36.000Z,2572.0
2023-03-20T03:06:36.000Z,2478.0
2023-03-20T03:07:35.000Z,2460.0
2023-03-20T03:08:36.000Z,2474.0
2023-03-20T03:09:35.000Z,2561.0
2023-03-20T03:10:36.000Z,2490.0
2023-03-20T03:11:36.000Z,2468.0
2023-03-20T03:12:35.000Z,2464.0
2023-03-20T03:13:36.000Z,2428.0
2023-03-20T03:14:35.000Z,2491.0
2023-03-20T03:15:36.000Z,2502.0
2023-03-20T03:16:36.000Z,2590.0
2023-03-20T03:17:35.000Z,2719.0
2023-03-20T03:18:36.000Z,2804.0
2023-03-20T03:19:35.000Z,2750.0
2023-03-20T03:20:35.000Z,2660.0
2023-03-20T03:21:36.000Z,2508.0
2023-03-20T03:22:35.000Z,2531.0
2023-03-20T03:23:36.000Z,2529.0
2023-03-20T03:24:36.000Z,2525.0
2023-03-20T03:25:35.000Z,2493.0
2023-03-20T03:26:36.000Z,2517.0
2023-03-20T03:27:35.000Z,2618.0
2023-03-20T03:28:36.000Z,2763.0
2023-03-20T03:29:36.000Z,2788.0
2023-03-20T03:30:35.000Z,2768.0
2023-03-20T03:31:36.000Z,2764.0
2023-03-20T03:32:36.000Z,2741.0
2023-03-20T03:33:35.000Z,2854.0
2023-03-20T03:34:36.000Z,2986.0
2023-03-20T03:35:35.000Z,3030.0
2023-03-20T03:36:36.000Z,3033.0
2023-03-20T03:37:36.000Z,3046.0
2023-03-20T03:38:35.000Z,2919.0
2023-03-20T03:39:36.000Z,2850.0
2023-03-20T03:40:35.000Z,2819.0
2023-03-20T03:41:36.000Z,2760.0
2023-03-20T03:42:36.000Z,2664.0
2023-03-20T03:43:35.000Z,2670.0
2023-03-20T03:44:36.000Z,2648.0
2023-03-20T03:45:36.000Z,2742.0
2023-03-20T03:46:35.000Z,2954.0
2023-03-20T03:47:36.000Z,2987.0
2023-03-20T03:48:35.000Z,3033.0
2023-03-20T03:49:35.000Z,3091.0
2023-03-20T03:50:36.000Z,2951.0
2023-03-20T03:51:35.000Z,3063.0
2023-03-20T03:52:36.000Z,3027.0
2023-03-20T03:53:35.000Z,2850.0
2023-03-20T03:54:35.000Z,2691.0
2023-03-20T03:55:36.000Z,2853.0
2023-03-20T03:56:35.000Z,2930.0
2023-03-20T03:57:36.000Z,2921.0
2023-03-20T03:58:36.000Z,2994.0
2023-03-20T03:59:35.000Z,3079.0
2023-03-20T04:00:36.000Z,3161.0
2023-03-20T04:01:35.000Z,3119.0
2023-03-20T04:02:36.000Z,3051.0
2023-03-20T04:03:36.000Z,3000.0
2023-03-20T04:04:35.000Z,2973.0
2023-03-20T04:05:36.000Z,2994.0
2023-03-20T04:06:35.000Z,2910.0
2023-03-20T04:07:35.000Z,2754.0
2023-03-20T04:08:36.000Z,2902.0
2023-03-20T04:09:35.000Z,2918.0
2023-03-20T04:10:36.000Z,2789.0
2023-03-20T04:11:36.000Z,2752.0
2023-03-20T04:12:35.000Z,2698.0
2023-03-20T04:13:36.000Z,2681.0
2023-03-20T04:14:35.000Z,2622.0
2023-03-20T04:15:36.000Z,2702.0
2023-03-20T04:16:36.000Z,2702.0
2023-03-20T04:17:35.000Z,2807.0
2023-03-20T04:18:36.000Z,2901.0
2023-03-20T04:19:35.000Z,3004.0
2023-03-20T04:20:35.000Z,2882.0
2023-03-20T04:21:36.000Z,2823.0
2023-03-20T04:22:35.000Z,2824.0
2023-03-20T04:23:36.000Z,2882.0
2023-03-20T04:24:36.000Z,2953.0
2023-03-20T04:25:35.000Z,3078.0
2023-03-20T04:26:36.000Z,3134.0
2023-03-20T04:27:35.000Z,3100.0
2023-03-20T04:28:36.000Z,3111.0
2023-03-20T04:29:36.000Z,3144.0
2023-03-20T04:30:35.000Z,3112.0
2023-03-20T04:31:36.000Z,3193.0
2023-03-20T04:32:36.000Z,3451.0
2023-03-20T04:33:35.000Z,3375.0
2023-03-20T04:34:36.000Z,3509.0
2023-03-20T04:35:35.000Z,3451.0
2023-03-20T04:36:36.000Z,3344.0
2023-03-20T04:37:36.000Z,3247.0
2023-03-20T04:38:35.000Z,3179.0
2023-03-20T04:39:36.000Z,3217.0
2023-03-20T04:40:35.000Z,3299.0
2023-03-20T04:41:36.000Z,3170.0
2023-03-20T04:42:36.000Z,3372.0
2023-03-20T04:43:35.000Z,3418.0
2023-03-20T04:44:36.000Z,3479.0
2023-03-20T04:45:35.000Z,3709.0
2023-03-20T04:46:35.000Z,3886.0
2023-03-20T04:47:36.000Z,3838.0
2023-03-20T04:48:35.000Z,3900.0
2023-03-20T04:49:36.000Z,3823.0
2023-03-20T04:50:36.000Z,3561.0
2023-03-20T04:51:35.000Z,3551.0
2023-03-20T04:52:36.000Z,3578.0
2023-03-20T04:53:35.000Z,3474.0
2023-03-20T04:54:35.000Z,3560.0
2023-03-20T04:55:36.000Z,3668.0
2023-03-20T04:56:35.000Z,3624.0
2023-03-20T04:57:36.000Z,3808.0
2023-03-20T04:58:36.000Z,3847.0
2023-03-20T04:59:35.000Z,3687.0
2023-03-20T05:00:36.000Z,3767.0
2023-03-20T05:01:35.000Z,3926.0
2023-03-20T05:02:36.000Z,3914.0
2023-03-20T05:03:36.000Z,4046.0
2023-03-20T05:04:35.000Z,3955.0
2023-03-20T05:05:36.000Z,4020.0
2023-03-20T05:06:35.000Z,3991.0
2023-03-20T05:07:36.000Z,4087.0
2023-03-20T05:08:36.000Z,4423.0
2023-03-20T05:09:35.000Z,4675.0
2023-03-20T05:10:36.000Z,4727.0
2023-03-20T05:11:36.000Z,4733.0
2023-03-20T05:12:35.000Z,5025.0
2023-03-20T05:13:36.000Z,5197.0
2023-03-20T05:14:35.000Z,4966.0
2023-03-20T05:15:36.000Z,4985.0
2023-03-20T05:16:36.000Z,5026.0
2023-03-20T05:17:35.000Z,5253.0
2023-03-20T05:18:36.000Z,5633.0
2023-03-20T05:19:35.000Z,5973.0
2023-03-20T05:20:35.000Z,6218.0
2023-03-20T05:21:36.000Z,6814.0
2023-03-20T05:22:35.000Z,6865.0
2023-03-20T05:23:36.000Z,7089.0
2023-03-20T05:24:36.000Z,7665.0
2023-03-20T05:25:35.000Z,8089.0
2023-03-20T05:26:36.000Z,8514.0
2023-03-20T05:27:35.000Z,8831.0
2023-03-20T05:28:36.000Z,8618.0
2023-03-20T05:29:36.000Z,8513.0
2023-03-20T05:30:35.000Z,8955.0
2023-03-20T05:31:36.000Z,8574.0
2023-03-20T05:32:35.000Z,7780.0
2023-03-20T05:33:35.000Z,8253.0
2023-03-20T05:34:36.000Z,7637.0
2023-03-20T05:35:35.000Z,7633.0
2023-03-20T05:36:36.000Z,7594.0
2023-03-20T05:37:36.000Z,7575.0
2023-03-20T05:38:35.000Z,7543.0
2023-03-20T05:39:36.000Z,7257.0
2023-03-20T05:40:35.000Z,7200.0
2023-03-20T05:41:36.000Z,7087.0
2023-03-20T05:42:36.000Z,7692.0
2023-03-20T05:43:35.000Z,8071.0
2023-03-20T05:44:36.000Z,7540.0
2023-03-20T05:45:35.000Z,8442.0
2023-03-20T05:46:35.000Z,8591.0
2023-03-20T05:47:36.000Z,8477.0
2023-03-20T05:48:35.000Z,8399.0
2023-03-20T05:49:36.000Z,8334.0
2023-03-20T05:50:36.000Z,8173.0
2023-03-20T05:51:35.000Z,7880.0
2023-03-20T05:52:36.000Z,7676.0
2023-03-20T05:53:35.000Z,7325.0
2023-03-20T05:54:35.000Z,7533.0
2023-03-20T05:55:36.000Z,7599.0
2023-03-20T05:56:35.000Z,7490.0
2023-03-20T05:57:36.000Z,7252.0
2023-03-20T05:58:36.000Z,7027.0
2023-03-20T05:59:35.000Z,6653.0
2023-03-20T06:00:36.000Z,7036.0
2023-03-20T06:01:35.000Z,7250.0
2023-03-20T06:02:36.000Z,7034.0
2023-03-20T06:03:36.000Z,7004.0
2023-03-20T06:04:35.000Z,7487.0
2023-03-20T06:05:36.000Z,8633.0
2023-03-20T06:06:35.000Z,9865.0
2023-03-20T06:07:35.000Z,11472.0
2023-03-20T06:08:36.000Z,13512.0
2023-03-20T06:09:35.000Z,14829.0
2023-03-20T06:10:36.000Z,14736.0
2023-03-20T06:11:36.000Z,12932.0
2023-03-20T06:12:35.000Z,11756.0
2023-03-20T06:13:36.000Z,11034.0
2023-03-20T06:14:35.000Z,11015.0
2023-03-20T06:15:36.000Z,10286.0
2023-03-20T06:16:36.000Z,9787.0
2023-03-20T06:17:35.000Z,10381.0
2023-03-20T06:18:36.000Z,10844.0
2023-03-20T06:19:35.000Z,11373.0
2023-03-20T06:20:35.000Z,11678.0
2023-03-20T06:21:36.000Z,11275.0
2023-03-20T06:22:35.000Z,10813.0
2023-03-20T06:23:36.000Z,11292.0
2023-03-20T06:24:36.000Z,11001.0
2023-03-20T06:25:35.000Z,10556.0
2023-03-20T06:26:36.000Z,10443.0
2023-03-20T06:27:35.000Z,9895.0
2023-03-20T06:28:36.000Z,9338.0
2023-03-20T06:29:36.000Z,9041.0
2023-03-20T06:30:35.000Z,8964.0
2023-03-20T06:31:36.000Z,9632.0
2023-03-20T06:32:35.000Z,9512.0
2023-03-20T06:33:35.000Z,8728.0
2023-03-20T06:34:36.000Z,10073.0
2023-03-20T06:35:35.000Z,9657.0
2023-03-20T06:36:36.000Z,10542.0
2023-03-20T06:37:36.000Z,11574.0
2023-03-20T06:38:35.000Z,13835.0
2023-03-20T06:39:36.000Z,13436.0
2023-03-20T06:40:35.000Z,12986.0
2023-03-20T06:41:36.000Z,12630.0
2023-03-20T06:42:36.000Z,12436.0
2023-03-20T06:43:35.000Z,11458.0
2023-03-20T06:44:36.000Z,10981.0
2023-03-20T06:45:35.000Z,10591.0
2023-03-20T06:46:35.000Z,10276.0
2023-03-20T06:47:36.000Z,10425.0
2023-03-20T06:48:35.000Z,10651.0
2023-03-20T06:49:35.000Z,11133.0
2023-03-20T06:50:36.000Z,11723.0
2023-03-20T06:51:35.000Z,12075.0
2023-03-20T06:52:36.000Z,11793.0
2023-03-20T06:53:35.000Z,13061.0
2023-03-20T06:54:35.000Z,15272.0
2023-03-20T06:55:36.000Z,16000.0
2023-03-20T06:56:35.000Z,16000.0
2023-03-20T06:57:36.000Z,16000.0
2023-03-20T06:58:36.000Z,16000.0
2023-03-20T06:59:35.000Z,16000.0
2023-03-20T07:00:36.000Z,16000.0
2023-03-20T07:01:35.000Z,16000.0
2023-03-20T07:02:36.000Z,16000.0
2023-03-20T07:03:36.000Z,16000.0
2023-03-20T07:04:35.000Z,16000.0
2023-03-20T07:05:36.000Z,16000.0
2023-03-20T07:06:35.000Z,16000.0
2023-03-20T07:07:35.000Z,16000.0
2023-03-20T07:08:36.000Z,16000.0
2023-03-20T07:09:35.000Z,16000.0
2023-03-20T07:10:36.000Z,16000.0
2023-03-20T07:11:36.000Z,16000.0
2023-03-20T07:12:35.000Z,16000.0
2023-03-20T07:13:36.000Z,16000.0
2023-03-20T07:14:35.000Z,16000.0
2023-03-20T07:15:36.000Z,16000.0
2023-03-20T07:16:36.000Z,16000.0
2023-03-20T07:17:35.000Z,16000.0
2023-03-20T07:18:36.000Z,16000.0
2023-03-20T07:19:35.000Z,16000.0
2023-03-20T07:20:35.000Z,16000.0
2023-03-20T07:21:36.000Z,15972.0
2023-03-20T07:22:35.000Z,15971.0
2023-03-20T07:23:36.000Z,14928.0
2023-03-20T07:24:36.000Z,14827.0
2023-03-20T07:25:35.000Z,13445.0
2023-03-20T07:26:36.000Z,13698.0
2023-03-20T07:27:35.000Z,12765.0
2023-03-20T07:28:36.000Z,14749.0
2023-03-20T07:29:36.000Z,16000.0
2023-03-20T07:30:35.000Z,16000.0
2023-03-20T07:31:36.000Z,16000.0
2023-03-20T07:32:36.000Z,16000.0
2023-03-20T07:33:35.000Z,16000.0
2023-03-20T07:34:36.000Z,16000.0
2023-03-20T07:35:35.000Z,16000.0
2023-03-20T07:36:36.000Z,16000.0
2023-03-20T07:37:36.000Z,16000.0
2023-03-20T07:38:35.000Z,16000.0
2023-03-20T07:39:36.000Z,16000.0
2023-03-20T07:40:35.000Z,16000.0
2023-03-20T07:41:35.000Z,16000.0
2023-03-20T07:42:36.000Z,16000.0
2023-03-20T07:43:35.000Z,16000.0
2023-03-20T07:44:36.000Z,16000.0
2023-03-20T07:45:35.000Z,16000.0
2023-03-20T07:46:35.000Z,16000.0
2023-03-20T07:47:36.000Z,16000.0
2023-03-20T07:48:35.000Z,16000.0
2023-03-20T07:49:35.000Z,16000.0
2023-03-20T07:50:36.000Z,16000.0
2023-03-20T07:51:35.000Z,16000.0
2023-03-20T07:52:36.000Z,16000.0
2023-03-20T07:53:35.000Z,16000.0
2023-03-20T07:54:35.000Z,16000.0
2023-03-20T07:55:36.000Z,16000.0
2023-03-20T07:56:35.000Z,16000.0
2023-03-20T07:57:36.000Z,16000.0
2023-03-20T07:58:36.000Z,16000.0
2023-03-20T07:59:35.000Z,16000.0
2023-03-20T08:00:36.000Z,16000.0
2023-03-20T08:01:35.000Z,16000.0
2023-03-20T08:02:36.000Z,16000.0
2023-03-20T08:03:36.000Z,16000.0
2023-03-20T08:04:35.000Z,16000.0
2023-03-20T08:05:36.000Z,16000.0
2023-03-20T08:06:35.000Z,16000.0
2023-03-20T08:07:35.000Z,16000.0
2023-03-20T08:08:36.000Z,16000.0
2023-03-20T08:09:35.000Z,16000.0
2023-03-20T08:10:36.000Z,16000.0
2023-03-20T08:11:36.000Z,16000.0
2023-03-20T08:12:35.000Z,16000.0
2023-03-20T08:13:36.000Z,16000.0
2023-03-20T08:14:35.000Z,16000.0
2023-03-20T08:15:36.000Z,16000.0
2023-03-20T08:16:36.000Z,16000.0
2023-03-20T08:17:35.000Z,16000.0
2023-03-20T08:18:36.000Z,16000.0
2023-03-20T08:19:35.000Z,16000.0
2023-03-20T08:20:35.000Z,16000.0
2023-03-20T08:21:36.000Z,16000.0
2023-03-20T08:22:35.000Z,16000.0
2023-03-20T08:23:36.000Z,16000.0
2023-03-20T08:24:36.000Z,16000.0
2023-03-20T08:25:35.000Z,16000.0
2023-03-20T08:26:36.000Z,16000.0
2023-03-20T08:27:35.000Z,16000.0
2023-03-20T08:28:36.000Z,16000.0
2023-03-20T08:29:36.000Z,16000.0
2023-03-20T08:30:35.000Z,16000.0
2023-03-20T08:31:36.000Z,16000.0
2023-03-20T08:32:35.000Z,16000.0
2023-03-20T08:33:35.000Z,16000.0
2023-03-20T08:34:36.000Z,16000.0
2023-03-20T08:35:35.000Z,16000.0
2023-03-20T08:36:36.000Z,16000.0
2023-03-20T08:37:36.000Z,16000.0
2023-03-20T08:38:35.000Z,16000.0
2023-03-20T08:39:36.000Z,16000.0
2023-03-20T08:40:35.000Z,16000.0
2023-03-20T08:41:36.000Z,16000.0
2023-03-20T08:42:36.000Z,16000.0
2023-03-20T08:43:35.000Z,16000.0
2023-03-20T08:44:36.000Z,16000.0
2023-03-20T08:45:35.000Z,16000.0
2023-03-20T08:46:35.000Z,16000.0
2023-03-20T08:47:36.000Z,16000.0
2023-03-20T08:48:35.000Z,16000.0
2023-03-20T08:49:35.000Z,16000.0
2023-03-20T08:50:36.000Z,16000.0
2023-03-20T08:51:35.000Z,16000.0
2023-03-20T08:52:36.000Z,16000.0
2023-03-20T08:53:35.000Z,16000.0
2023-03-20T08:54:35.000Z,16000.0
2023-03-20T08:55:36.000Z,16000.0
2023-03-20T08:56:35.000Z,16000.0
2023-03-20T08:57:36.000Z,16000.0
2023-03-20T08:58:35.000Z,16000.0
2023-03-20T08:59:35.000Z,16000.0
2023-03-20T09:00:36.000Z,16000.0
2023-03-20T09:01:35.000Z,16000.0
2023-03-20T09:02:36.000Z,16000.0
2023-03-20T09:03:36.000Z,16000.0
2023-03-20T09:04:35.000Z,16000.0
2023-03-20T09:05:36.000Z,16000.0
2023-03-20T09:06:35.000Z,16000.0
2023-03-20T09:07:35.000Z,16000.0
2023-03-20T09:08:36.000Z,16000.0
2023-03-20T09:09:35.000Z,16000.0
2023-03-20T09:10:36.000Z,16000.0
2023-03-20T09:11:36.000Z,16000.0
2023-03-20T09:12:35.000Z,16000.0
2023-03-20T09:13:36.000Z,16000.0
2023-03-20T09:14:35.000Z,16000.0
2023-03-20T09:15:36.000Z,16000.0
2023-03-20T09:16:36.000Z,16000.0
2023-03-20T09:17:35.000Z,16000.0
2023-03-20T09:18:36.000Z,16000.0
2023-03-20T09:19:35.000Z,16000.0
2023-03-20T09:20:35.000Z,16000.0
2023-03-20T09:21:36.000Z,16000.0
2023-03-20T09:22:35.000Z,16000.0
2023-03-20T09:23:36.000Z,16000.0
2023-03-20T09:24:35.000Z,16000.0
2023-03-20T09:25:35.000Z,16000.0
2023-03-20T09:26:36.000Z,16000.0
2023-03-20T09:27:35.000Z,16000.0
2023-03-20T09:28:36.000Z,16000.0
2023-03-20T09:29:36.000Z,16000.0
2023-03-20T09:30:35.000Z,16000.0
2023-03-20T09:31:36.000Z,16000.0
2023-03-20T09:32:35.000Z,16000.0
2023-03-20T09:33:35.000Z,16000.0
2023-03-20T09:34:36.000Z,16000.0
2023-03-20T09:35:35.000Z,16000.0
2023-03-20T09:36:36.000Z,16000.0
2023-03-20T09:37:36.000Z,16000.0
2023-03-20T09:38:35.000Z,16000.0
2023-03-20T09:39:36.000Z,16000.0
2023-03-20T09:40:35.000Z,16000.0
2023-03-20T09:41:36.000Z,16000.0
2023-03-20T09:42:36.000Z,16000.0
2023-03-20T09:43:35.000Z,16000.0
2023-03-20T09:44:36.000Z,16000.0
2023-03-20T09:45:35.000Z,16000.0
2023-03-20T09:46:35.000Z,16000.0
2023-03-20T09:47:36.000Z,16000.0
2023-03-20T09:48:35.000Z,16000.0
2023-03-20T09:49:35.000Z,16000.0
2023-03-20T09:50:36.000Z,16000.0
2023-03-20T09:51:35.000Z,16000.0
2023-03-20T09:52:36.000Z,16000.0
2023-03-20T09:53:36.000Z,16000.0
2023-03-20T09:54:35.000Z,16000.0
2023-03-20T09:55:36.000Z,16000.0
2023-03-20T09:56:35.000Z,16000.0
2023-03-20T09:57:35.000Z,16000.0
2023-03-20T09:58:36.000Z,16000.0
2023-03-20T09:59:35.000Z,16000.0
2023-03-20T10:00:36.000Z,16000.0
2023-03-20T10:01:35.000Z,16000.0
2023-03-20T10:02:35.000Z,16000.0
2023-03-20T10:03:36.000Z,16000.0
2023-03-20T10:04:35.000Z,16000.0
2023-03-20T10:05:36.000Z,16000.0
2023-03-20T10:06:36.000Z,16000.0
2023-03-20T10:07:35.000Z,16000.0
2023-03-20T10:08:36.000Z,16000.0
2023-03-20T10:09:35.000Z,13123.0
2023-03-20T10:10:35.000Z,15046.0
2023-03-20T10:11:36.000Z,16000.0
2023-03-20T10:12:35.000Z,16000.0
2023-03-20T10:13:36.000Z,16000.0
2023-03-20T10:14:36.000Z,16000.0
2023-03-20T10:15:35.000Z,16000.0
2023-03-20T10:16:36.000Z,16000.0
2023-03-20T10:17:35.000Z,16000.0
2023-03-20T10:18:36.000Z,16000.0
2023-03-20T10:19:36.000Z,16000.0
2023-03-20T10:20:35.000Z,16000.0
2023-03-20T10:21:36.000Z,16000.0
2023-03-20T10:22:35.000Z,16000.0
2023-03-20T10:23:35.000Z,16000.0
2023-03-20T10:24:36.000Z,16000.0
2023-03-20T10:25:35.000Z,16000.0
2023-03-20T10:26:36.000Z,16000.0
2023-03-20T10:27:36.000Z,16000.0
2023-03-20T10:28:35.000Z,16000.0
2023-03-20T10:29:36.000Z,16000.0
2023-03-20T10:30:35.000Z,16000.0
2023-03-20T10:31:36.000Z,16000.0
2023-03-20T10:32:36.000Z,16000.0
2023-03-20T10:33:35.000Z,16000.0
2023-03-20T10:34:36.000Z,16000.0
2023-03-20T10:35:35.000Z,16000.0
2023-03-20T10:36:35.000Z,16000.0
2023-03-20T10:37:36.000Z,16000.0
2023-03-20T10:38:35.000Z,16000.0
2023-03-20T10:39:36.000Z,16000.0
2023-03-20T10:40:36.000Z,16000.0
2023-03-20T10:41:35.000Z,16000.0
2023-03-20T10:42:36.000Z,16000.0
2023-03-20T10:43:35.000Z,16000.0
2023-03-20T10:44:35.000Z,16000.0
2023-03-20T10:45:36.000Z,16000.0
2023-03-20T10:46:35.000Z,16000.0
2023-03-20T10:47:36.000Z,16000.0
2023-03-20T10:48:35.000Z,16000.0
2023-03-20T10:49:35.000Z,16000.0
2023-03-20T10:50:36.000Z,16000.0
2023-03-20T10:51:35.000Z,16000.0
2023-03-20T10:52:35.000Z,16000.0
2023-03-20T10:53:36.000Z,16000.0
2023-03-20T10:54:35.000Z,16000.0
2023-03-20T10:55:35.000Z,16000.0
2023-03-20T10:56:36.000Z,16000.0
2023-03-20T10:57:35.000Z,16000.0
2023-03-20T10:58:36.000Z,16000.0
2023-03-20T10:59:35.000Z,16000.0
2023-03-20T11:00:35.000Z,16000.0
2023-03-20T11:01:36.000Z,16000.0
2023-03-20T11:02:35.000Z,16000.0
2023-03-20T11:03:36.000Z,16000.0
2023-03-20T11:04:36.000Z,16000.0
2023-03-20T11:05:35.000Z,16000.0
2023-03-20T11:06:36.000Z,16000.0
2023-03-20T11:07:35.000Z,16000.0
2023-03-20T11:08:35.000Z,16000.0
2023-03-20T11:09:36.000Z,16000.0
2023-03-20T11:10:35.000Z,16000.0
2023-03-20T11:11:36.000Z,16000.0
2023-03-20T11:12:35.000Z,16000.0
2023-03-20T11:13:35.000Z,16000.0
2023-03-20T11:14:36.000Z,16000.0
2023-03-20T11:15:35.000Z,16000.0
2023-03-20T11:16:36.000Z,16000.0
2023-03-20T11:17:36.000Z,16000.0
2023-03-20T11:18:35.000Z,16000.0
2023-03-20T11:19:36.000Z,16000.0
2023-03-20T11:20:35.000Z,16000.0
2023-03-20T11:21:35.000Z,16000.0
2023-03-20T11:22:36.000Z,16000.0
2023-03-20T11:23:35.000Z,16000.0
2023-03-20T11:24:36.000Z,16000.0
2023-03-20T11:25:36.000Z,16000.0
2023-03-20T11:26:35.000Z,16000.0
2023-03-20T11:27:36.000Z,16000.0
2023-03-20T11:28:35.000Z,16000.0
2023-03-20T11:29:36.000Z,16000.0
2023-03-20T11:30:36.000Z,16000.0
2023-03-20T11:31:35.000Z,16000.0
2023-03-20T11:32:36.000Z,16000.0
2023-03-20T11:33:35.000Z,16000.0
2023-03-20T11:34:35.000Z,16000.0
2023-03-20T11:35:36.000Z,16000.0
2023-03-20T11:36:35.000Z,16000.0
2023-03-20T11:37:36.000Z,16000.0
2023-03-20T11:38:35.000Z,16000.0
2023-03-20T11:39:35.000Z,16000.0
2023-03-20T11:40:36.000Z,16000.0
2023-03-20T11:41:35.000Z,16000.0
2023-03-20T11:42:36.000Z,16000.0
2023-03-20T11:43:36.000Z,16000.0
2023-03-20T11:44:35.000Z,16000.0
2023-03-20T11:45:36.000Z,16000.0
2023-03-20T11:46:35.000Z,16000.0
2023-03-20T11:47:35.000Z,16000.0
2023-03-20T11:48:36.000Z,16000.0
2023-03-20T11:49:35.000Z,16000.0
2023-03-20T11:50:36.000Z,16000.0
2023-03-20T11:51:36.000Z,16000.0
2023-03-20T11:52:35.000Z,16000.0
2023-03-20T11:53:36.000Z,16000.0
2023-03-20T11:54:35.000Z,16000.0
2023-03-20T11:55:35.000Z,16000.0
2023-03-20T11:56:36.000Z,16000.0
2023-03-20T11:57:35.000Z,16000.0
2023-03-20T11:58:36.000Z,16000.0
2023-03-20T11:59:35.000Z,16000.0
2023-03-20T12:00:35.000Z,16000.0
2023-03-20T12:01:36.000Z,16000.0
2023-03-20T12:02:35.000Z,16000.0
2023-03-20T12:03:36.000Z,16000.0
2023-03-20T12:04:36.000Z,16000.0
2023-03-20T12:05:35.000Z,16000.0
2023-03-20T12:06:36.000Z,16000.0
2023-03-20T12:07:35.000Z,16000.0
2023-03-20T12:08:35.000Z,16000.0
2023-03-20T12:09:36.000Z,16000.0
2023-03-20T12:10:35.000Z,16000.0
2023-03-20T12:11:36.000Z,16000.0
2023-03-20T12:12:36.000Z,16000.0
2023-03-20T12:13:35.000Z,16000.0
2023-03-20T12:14:36.000Z,16000.0
2023-03-20T12:15:35.000Z,16000.0
2023-03-20T12:16:36.000Z,16000.0
2023-03-20T12:17:36.000Z,16000.0